AirNav   Duncan Aviation - Near you to keep you flying
 
 623 users online  

3WN6 Knutson Farms Airport
Chetek, Wisconsin, USA

GOING TO CHETEK?


FAA INFORMATION EFFECTIVE 26 JANUARY 2023

Location

FAA Identifier: 3WN6
Lat/Long: 45-14-20.2594N 091-42-43.0115W
45-14.337657N 091-42.716858W
45.2389609,-91.7119476
(estimated)
Elevation: 1035 ft. / 315 m (estimated)
From city: 6 miles SSW of CHETEK, WI
Time zone: UTC -6 (UTC -5 during Daylight Saving Time)
Zip code: 54728

Airport Operations

Airport use: Private use. Permission required prior to landing
Activation date: 08/1971
Control tower: no
ARTCC: MINNEAPOLIS CENTER
FSS: GREEN BAY FLIGHT SERVICE STATION
Attendance: CONTINUOUS
Wind indicator: yes, WINDSOCK MIDFIELD EAST SIDE OF RY.
Segmented circle: no

Airport Communications

WX AWOS-3P at Y23 (5 nm NE): 119.05 (715-924-1836)
WX AWOS-3 at RPD (11 nm N): 120.525 (715-458-4481)
WX AWOS-3PT at UBE (20 nm NW): 119.175 (715-822-3452)

Nearby radio navigation aids

VOR radial/distance  VOR name  Freq  Var
EAUr330/22.7EAU CLAIRE VORTAC113.6504E

 
NDB name  Hdg/Dist  Freq  Var  ID
WICKR140/6.122101ERP .-. .--.

Airport Services

Runway Information

Runway 18/36

Dimensions: 2000 x 100 ft. / 610 x 30 m
Surface: turf
RUNWAY 18  RUNWAY 36
Traffic pattern: rightleft

Airport Ownership and Management from official FAA records

Ownership: Privately-owned
Owner: THOMAS J. KNUTSON
204 21-3/4 ST
CHETEK, WI 54728
Phone 715-237-2477
OR 615-308-2839.
Manager: THOMAS J. KNUTSON
204 21-3/4 ST
CHETEK, WI 54728
Phone 651-308-2839

Airport Operational Statistics

Aircraft based on the field: 4
Single engine airplanes: 4
    
Aircraft operations: 48/year
100% local general aviation

Additional Remarks

40 FT POWERLINE 192 FT E OF RY & 40 FT BLDGS 300 FT W OF RY.
FOR CD CTC MINNEAPOLIS ARTCC AT 651-463-5588.

Instrument Procedures

There are no published instrument procedures at 3WN6.

Some nearby airports with instrument procedures:

Y23 - Chetek Municipal/Southworth Airport (5 nm NE)
KRPD - Rice Lake Regional Airport - Carl's Field (11 nm N)
3T3 - Boyceville Municipal Airport (18 nm SW)
KUBE - Cumberland Municipal Airport (20 nm NW)
KLUM - Menomonie Municipal Airport-Score Field (22 nm S)
 
Loc | Ops | Rwys | IFR | FBO | Links
Com | Nav | Svcs | Stats | Notes
Area around 3WN6 (Knutson Farms Airport)
 
Road maps at: MapQuest Bing Google
 
Aerial photo
WARNING: Photo may not be current or correct
Aerial photo of 3WN6 (Knutson Farms Airport)
Photo by Daniel L. Johnson
Photo taken 24-May-2017
looking south,

Do you have a better or more recent aerial photo of Knutson Farms Airport that you would like to share? If so, please send us your photo.

 
Sectional chart

 
Airport distance calculator
Flying to Knutson Farms Airport? Find the distance to fly.

From to 3WN6

Sunrise and sunset
Times for 27-Jan-2023
 Local
(UTC-6)
 Zulu
(UTC)
Morning civil twilight07:0213:02
Sunrise07:3413:34
Sunset17:0623:06
Evening civil twilight17:3723:37

Current date and time
Zulu (UTC)  27-Jan-2023 11:12:44
Local (UTC-6)  27-Jan-2023 05:12:44
 
METAR
KY23 
5nm NE 
271055Z AUTO 16010G15KT 10SM OVC012 M08/M09 A2945 RMK AO2 T10811093
KRPD 
14nm N 
271055Z AUTO 14011KT 10SM OVC012 M09/M09 A2945 RMK AO2 T10901092
KUBE 
20nm NW 
271055Z AUTO 16012KT 1 1/4SM -SN OVC011 M07/M07 A2941 RMK AO2
TAF
KEAU 
25nm SE 
270711Z 2707/2806 18010KT P6SM OVC009 FM270900 18015G24KT 1 1/2SM -SN BR OVC015 FM271500 26014G24KT 4SM BLSN BKN015 FM271800 28015G22KT 6SM BLSN OVC018 FM272200 28014G20KT P6SM OVC035 FM280300 30013KT P6SM BKN050
NOTAMs
Click for the latest NOTAMs
NOTAMs are issued by the DoD/FAA and will open in a separate window not controlled by AirNav.

 

 
 

Would you like to see your business listed on this page?

 If your business provides an interesting product or service to pilots, flight crews, aircraft, or users of the Knutson Farms Airport, you should consider listing it here.  To start the listing process, click on the button below
 
Add a business
 

Other Pages about Knutson Farms Airport

Update a link
 
Copyright © AirNav, LLC. All rights reserved. Privacy Policy  Contact